East Ridge, TN (37412)

9:59 PM EDT on July 28, 2016 (GMT -0400)
Lazard St | | Change Station

Elev 722 ft 34.99 °N, 85.24 °W | Updated 5 seconds ago

Overcast
Overcast
76.9 °F
Feels Like 78 °F
N
1.0
Wind Variable Wind from SW
Gusts 5.0 mph

Today
High -- | Low -- °F
--% Chance of Precip.
Yesterday
High -- | Low -- °F
Precip. -- in
Pressure 29.95 in
Visibility 9.0 miles
Clouds Few 1500 ft
Few 2500 ft
Mostly Cloudy 11000 ft
Overcast 25000 ft
Heat Index 78 °F
Dew Point 72 °F
Humidity 86%
Rainfall 0.25 in
Snow Depth Not available.
6:47 AM 8:46 PM
Waning Crescent, 26% visible
METAR KCHA 290153Z 21005KT 9SM FEW015 FEW025 BKN110 OVC250 25/22 A2997 RMK AO2 SLP141 T02500217 $
Pressure 29.95 in
Visibility 9.0 miles
Clouds Few 1500 ft
Few 2500 ft
Mostly Cloudy 11000 ft
Overcast 25000 ft
Heat Index 78 °F
Dew Point 72 °F
Humidity 86%
Rainfall 0.25 in
Snow Depth Not available.
6:47 AM 8:46 PM
Waning Crescent, 26% visible
METAR KCHA 290153Z 21005KT 9SM FEW015 FEW025 BKN110 OVC250 25/22 A2997 RMK AO2 SLP141 T02500217 $

10-Day Weather Forecast

Almanac

Astronomy

Jul. 28, 2016 Rise Set
Actual Time
Civil Twilight
Nautical Twilight
Astronomical Twilight
Moon
Length of Visible Light
Length of Day
Tomorrow will be .
, % of the Moon is Illuminated

Today's Extremes

State Highs State Lows

Community

WunderPhotos

Upload Photos

1,928,255 photos uploaded!

WunderBlog® & News

Nearby

Air Quality

  Air Quality AQ Index Pollutant
Not available.

Snow Depth

Station Depth Elevation

Earthquake Activity

City Distance Mag. Time & Date
Minimum magnitude displayed is 2.5.

Coastal Water Temperatures

Place Temperature

Stations

Nearby Weather Stations

Station Location Temp. Windchill Dew Point Humidity Wind Precip. Elev Updated Type
                   

Watches & Warnings

There are currently no watches in effect.